createdAt,value
2018-11-03T03:48:53.359Z,99.90
2018-11-03T03:50:55.466Z,93.20
2018-11-03T03:52:57.585Z,93.40
2018-11-03T03:54:59.734Z,92.50
2018-11-03T03:57:01.794Z,91.70
2018-11-03T03:59:03.922Z,92.70
2018-11-03T04:01:05.945Z,91.00
2018-11-03T04:03:08.014Z,90.60
2018-11-03T04:05:10.073Z,91.90
2018-11-03T04:07:12.966Z,91.40
2018-11-03T04:09:15.013Z,91.10
2018-11-03T04:11:17.094Z,91.70
2018-11-03T04:13:19.153Z,92.50
2018-11-03T04:15:21.185Z,93.10
2018-11-03T04:17:23.221Z,92.30
2018-11-03T04:19:25.274Z,92.10
2018-11-03T04:21:28.610Z,92.50
2018-11-03T04:23:30.666Z,92.60
2018-11-03T04:25:32.704Z,92.40
2018-11-03T04:27:34.771Z,93.20
2018-11-03T04:29:36.822Z,92.90
2018-11-03T04:31:38.870Z,92.60
2018-11-03T04:33:41.078Z,91.60
2018-11-03T04:35:43.144Z,91.20
2018-11-03T04:37:45.214Z,91.10
2018-11-03T04:39:47.282Z,90.60
2018-11-03T04:41:49.346Z,90.60
2018-11-03T04:43:51.407Z,90.80
2018-11-03T04:45:53.462Z,91.50
2018-11-03T04:47:55.520Z,91.70
2018-11-03T04:49:57.586Z,90.80
2018-11-03T04:51:59.638Z,91.20
2018-11-03T04:54:01.694Z,90.50
2018-11-03T04:56:03.817Z,90.50
2018-11-03T04:58:05.895Z,90.90
2018-11-03T05:00:08.240Z,91.70
2018-11-03T05:02:10.293Z,92.10
2018-11-03T05:04:12.397Z,92.00
2018-11-03T05:06:14.442Z,91.60
2018-11-03T05:08:16.510Z,91.50
2018-11-03T05:10:18.673Z,91.20
2018-11-03T05:12:20.705Z,92.00
2018-11-03T05:14:22.777Z,92.10
2018-11-03T05:16:24.827Z,91.90
2018-11-03T05:18:26.898Z,91.20
2018-11-03T05:20:28.942Z,90.30
2018-11-03T05:22:30.999Z,89.40
2018-11-03T05:24:33.058Z,89.40
2018-11-03T05:26:35.118Z,88.70
2018-11-03T05:28:37.226Z,90.60
2018-11-03T05:30:39.289Z,91.20
2018-11-03T05:32:41.325Z,91.50
2018-11-03T05:34:43.379Z,91.50
2018-11-03T05:36:45.451Z,91.80
2018-11-03T05:38:47.570Z,91.70
2018-11-03T05:40:49.622Z,92.10
2018-11-03T05:42:51.693Z,92.30
2018-11-03T06:11:11.852Z,93.00
2018-11-03T06:13:14.003Z,92.20
2018-11-03T06:15:16.277Z,91.80
2018-11-03T06:17:18.429Z,92.40
2018-11-03T06:19:20.574Z,92.90
2018-11-03T16:44:51.058Z,23.30
2018-11-03T16:46:53.436Z,24.80
2018-11-03T18:38:42.195Z,60.90
2018-11-03T18:40:44.313Z,59.90
2018-11-03T19:06:17.414Z,58.60
2018-11-03T19:08:19.615Z,60.80
2018-11-03T19:23:25.159Z,63.20
2018-11-03T19:25:27.290Z,63.70
2018-11-03T19:38:00.899Z,77.50
2018-11-03T19:40:03.508Z,78.40
2018-11-03T19:42:05.765Z,79.00
2018-11-03T19:44:08.619Z,79.50
2018-11-03T19:46:10.819Z,79.20
2018-11-03T19:48:13.060Z,79.50
2018-11-03T19:50:15.086Z,80.20
2018-11-03T19:52:17.213Z,80.60
2018-11-03T19:54:19.398Z,81.10
2018-11-03T19:56:21.534Z,81.70
2018-11-03T19:58:23.755Z,82.40
2018-11-03T20:00:25.917Z,83.50
2018-11-03T20:02:28.015Z,83.80
2018-11-03T20:04:30.215Z,83.90
2018-11-03T20:06:32.343Z,81.20
2018-11-03T20:08:34.514Z,78.40
2018-11-03T20:10:36.634Z,77.70
2018-11-03T20:12:38.778Z,77.90
2018-11-03T20:14:40.963Z,77.70
2018-11-03T20:16:43.105Z,76.60
2018-11-03T20:18:45.306Z,77.80
2018-11-03T20:20:47.432Z,78.30
2018-11-03T20:22:49.571Z,77.50
2018-11-03T20:24:51.792Z,78.80
2018-11-03T20:26:53.930Z,77.70
2018-11-03T20:28:56.067Z,79.10
2018-11-03T20:30:58.174Z,79.80
2018-11-03T20:33:00.328Z,78.00
2018-11-03T20:35:02.493Z,77.50
2018-11-03T20:37:04.660Z,76.70
2018-11-03T20:39:07.629Z,78.70
2018-11-03T20:41:09.750Z,76.60
2018-11-03T20:43:11.967Z,77.40
2018-11-03T20:45:14.097Z,75.10
2018-11-03T20:47:16.245Z,70.40
2018-11-03T20:49:18.388Z,72.80
2018-11-03T20:51:20.536Z,73.50
2018-11-03T20:53:22.672Z,72.70
2018-11-03T20:55:24.786Z,73.20
2018-11-03T20:57:27.007Z,71.70
2018-11-03T20:59:29.200Z,72.00
2018-11-03T21:01:31.318Z,69.40
2018-11-03T21:03:33.619Z,70.30
2018-11-03T21:05:35.862Z,71.40
2018-11-03T21:07:38.410Z,76.00
2018-11-03T21:09:40.527Z,79.00
2018-11-03T21:11:42.666Z,77.30
2018-11-03T21:13:44.811Z,79.00
2018-11-03T21:15:47.074Z,81.40
2018-11-03T21:17:49.338Z,83.70
2018-11-03T21:19:51.507Z,82.70
2018-11-03T21:21:53.616Z,83.70
2018-11-03T21:23:55.900Z,86.50
2018-11-03T21:25:57.925Z,87.30
2018-11-03T21:28:00.080Z,89.40
2018-11-03T21:30:02.231Z,90.70
2018-11-03T21:32:05.035Z,90.90
2018-11-03T21:34:07.134Z,91.20
2018-11-03T21:36:09.264Z,91.20
2018-11-03T21:38:11.552Z,91.30
2018-11-03T21:40:13.611Z,91.70
2018-11-03T21:42:15.752Z,91.50
2018-11-03T21:44:17.874Z,91.70
2018-11-03T21:46:20.028Z,91.40
2018-11-03T21:48:22.215Z,91.40
2018-11-03T21:50:24.350Z,91.40
2018-11-03T21:52:26.470Z,91.40
2018-11-03T21:54:28.602Z,91.40
2018-11-03T21:56:30.711Z,91.40
2018-11-03T21:58:32.857Z,91.70
2018-11-03T22:00:34.987Z,91.50
2018-11-03T22:02:37.103Z,92.00
2018-11-03T22:04:39.255Z,91.90
2018-11-03T22:06:41.342Z,92.20
2018-11-03T22:08:43.473Z,92.00
2018-11-03T22:10:45.639Z,92.80
2018-11-03T22:12:47.767Z,92.90
2018-11-03T22:14:49.899Z,93.10
2018-11-03T22:16:52.007Z,93.20
2018-11-03T22:18:54.114Z,92.60
2018-11-03T22:20:56.268Z,91.60
2018-11-03T22:22:58.430Z,91.30
2018-11-03T22:25:00.551Z,91.30
2018-11-03T22:27:02.711Z,91.30
2018-11-03T22:29:04.888Z,91.90
2018-11-03T22:31:07.046Z,92.00
2018-11-03T22:33:09.184Z,91.80
2018-11-03T22:35:11.337Z,92.40
2018-11-03T22:37:13.516Z,93.60
2018-11-03T22:39:15.685Z,94.50
2018-11-03T22:41:19.844Z,95.20
2018-11-03T22:43:21.920Z,94.80
2018-11-03T22:45:24.062Z,95.10
2018-11-03T22:47:26.198Z,94.70
2018-11-03T22:49:28.308Z,94.40
2018-11-03T23:12:34.739Z,90.20
2018-11-03T23:14:36.906Z,91.50
2018-11-03T23:16:39.078Z,93.10
2018-11-03T23:18:41.435Z,93.60
2018-11-03T23:20:43.596Z,94.20
2018-11-03T23:22:45.737Z,94.40
2018-11-03T23:24:47.887Z,94.30
2018-11-03T23:26:50.080Z,94.40
2018-11-03T23:28:52.275Z,94.40
2018-11-03T23:30:54.454Z,94.20
2018-11-03T23:32:56.630Z,94.30
2018-11-03T23:34:58.819Z,94.30
2018-11-03T23:37:00.999Z,94.20
2018-11-03T23:39:05.367Z,94.60
2018-11-03T23:41:07.530Z,94.50
2018-11-03T23:43:09.757Z,94.60
2018-11-03T23:45:11.918Z,94.80
2018-11-03T23:47:14.085Z,94.50
2018-11-03T23:49:16.291Z,94.40
2018-11-03T23:51:18.499Z,94.40
2018-11-03T23:53:20.755Z,94.30
2018-11-03T23:55:22.853Z,94.40
2018-11-03T23:57:24.990Z,94.30
2018-11-03T23:59:27.274Z,95.10
